»·PEaware :: SWA933 KELP-KABQ

SWA933 :: KELP-KABQ

FLIGHT INFORMATION

Flight Status: Arrived
Operator:
Southwest Airlines
More flights by this operator :: More flights under this callsign
Pilot: Ben L. (6391)
Aircraft: BOEING 737-800
(B738)
More flights by this aircraft type
Origin: KELP El Paso Intl
United States
Destination: KABQ Albuquerque Intl Sunport
United States
More flights between these airports :: More routes between these airports
Route: +ATKNN5 ATKNN RUTER TCS J13 ABQ
File this flight plan on PilotEdge
Remarks:
Altitude:
(Current/Filed)
28,000ft
Speed:
(Current/Filed)
420kts
Departed: 27-Mar-20 04:53 PM
Arrived: 27-Mar-20 05:34 PM
Distance/Time
Traveled:
195nm/0:41
Distance/Time
To Go:
Arrived

Flight Plot

Page will automatically refresh every two minutes.

Flight plan parsing failed; only flown route is shown


Map Options




Map Legend


Flown Route
Filed Route
Departure Airport
Arrival Airport
Navaid (VOR, NDB)
Fix

Horizontal Profiles

Position Reports

Time Latitude Longitude Heading Altitude Ground
Speed
27-Mar-20 16:12 31.800964 -106.392886 221 3928ft 0kts
27-Mar-20 16:13 31.800965 -106.392886 221 3928ft 0kts
27-Mar-20 16:14 31.800964 -106.392886 221 3928ft 0kts
27-Mar-20 16:15 31.800965 -106.392886 221 3928ft 0kts
27-Mar-20 16:16 31.800964 -106.392886 221 3928ft 0kts
27-Mar-20 16:17 31.800965 -106.392886 221 3928ft 0kts
27-Mar-20 16:18 31.800965 -106.392886 221 3928ft 0kts
27-Mar-20 16:19 31.800965 -106.392886 221 3928ft 0kts
27-Mar-20 16:20 31.800964 -106.392886 221 3928ft 0kts
27-Mar-20 16:21 31.800964 -106.392886 221 3928ft 0kts
27-Mar-20 16:21 31.800964 -106.392886 221 3928ft 0kts
27-Mar-20 16:23 31.800965 -106.392886 221 3928ft 0kts
27-Mar-20 16:24 31.800964 -106.392886 221 3928ft 0kts
27-Mar-20 16:24 31.800964 -106.392886 221 3928ft 0kts
27-Mar-20 16:25 31.800964 -106.392886 221 3928ft 0kts
27-Mar-20 16:27 31.800964 -106.392886 221 3928ft 0kts
27-Mar-20 16:27 31.800965 -106.392886 221 3928ft 0kts
27-Mar-20 16:28 31.800965 -106.392886 221 3928ft 0kts
27-Mar-20 16:29 31.801078 -106.392360 294 3928ft 2kts
27-Mar-20 16:30 31.800620 -106.392074 13 3928ft 0kts
27-Mar-20 16:31 31.800565 -106.392091 6 3928ft 0kts
27-Mar-20 16:32 31.800516 -106.392103 8 3928ft 0kts
27-Mar-20 16:33 31.800516 -106.392102 8 3928ft 0kts
27-Mar-20 16:34 31.800516 -106.392103 8 3928ft 0kts
27-Mar-20 16:35 31.800516 -106.392103 8 3928ft 0kts
27-Mar-20 16:36 31.800516 -106.392103 8 3928ft 0kts
27-Mar-20 16:37 31.800516 -106.392103 8 3928ft 0kts
27-Mar-20 16:38 31.800536 -106.392099 9 3928ft 0kts
27-Mar-20 16:39 31.800538 -106.392099 9 3928ft 0kts
27-Mar-20 16:40 31.800555 -106.392095 9 3928ft 0kts
27-Mar-20 16:41 31.800560 -106.392094 10 3928ft 0kts
27-Mar-20 16:42 31.800455 -106.391030 133 3928ft 14kts
27-Mar-20 16:43 31.799900 -106.385518 90 3937ft 15kts
27-Mar-20 16:44 31.799919 -106.380534 90 3943ft 16kts
27-Mar-20 16:45 31.799700 -106.374636 93 3951ft 18kts
27-Mar-20 16:46 31.799394 -106.368166 93 3957ft 20kts
27-Mar-20 16:47 31.799049 -106.361774 94 3956ft 16kts
27-Mar-20 16:48 31.799576 -106.360498 7 3953ft 0kts
27-Mar-20 16:49 31.799576 -106.360498 7 3953ft 0kts
27-Mar-20 16:50 31.799576 -106.360498 7 3953ft 0kts
27-Mar-20 16:51 31.800358 -106.360523 323 3952ft 11kts
27-Mar-20 16:52 31.802199 -106.390704 265 4652ft 155kts
27-Mar-20 16:53 31.804688 -106.451405 267 6961ft 213kts
27-Mar-20 16:54 31.804706 -106.522122 244 9877ft 229kts
27-Mar-20 16:55 31.765479 -106.591719 272 11147ft 311kts
27-Mar-20 16:56 31.835450 -106.655380 355 13813ft 389kts
27-Mar-20 16:57 31.946189 -106.631208 4 16343ft 417kts
27-Mar-20 16:58 32.052086 -106.650598 313 17045ft 373kts
27-Mar-20 16:59 32.129605 -106.730848 306 17076ft 363kts
27-Mar-20 17:00 32.205536 -106.813521 307 19439ft 378kts
27-Mar-20 17:01 32.282985 -106.899549 303 21818ft 384kts
27-Mar-20 17:02 32.355096 -106.993922 301 23887ft 392kts
27-Mar-20 17:03 32.428820 -107.091970 301 25692ft 404kts
27-Mar-20 17:04 32.537096 -107.148651 345 27138ft 478kts
27-Mar-20 17:05 32.674425 -107.146918 355 27904ft 503kts
27-Mar-20 17:06 32.816337 -107.132263 358 27864ft 520kts
27-Mar-20 17:07 32.961606 -107.113630 358 27863ft 530kts
27-Mar-20 17:08 33.108441 -107.093421 359 27861ft 534kts
27-Mar-20 17:09 33.257010 -107.072484 359 27855ft 534kts
27-Mar-20 17:10 33.404169 -107.051613 359 27857ft 534kts
27-Mar-20 17:11 33.551804 -107.030610 359 27859ft 535kts
27-Mar-20 17:12 33.699726 -107.009532 359 27876ft 536kts
27-Mar-20 17:13 33.848080 -106.988353 359 27857ft 538kts
27-Mar-20 17:14 33.996308 -106.967111 359 25857ft 531kts
27-Mar-20 17:15 34.135136 -106.947195 359 23965ft 518kts
27-Mar-20 17:16 34.273163 -106.927316 359 21872ft 488kts
27-Mar-20 17:17 34.405673 -106.908309 359 19370ft 474kts
27-Mar-20 17:18 34.535148 -106.889715 0 16861ft 460kts
27-Mar-20 17:19 34.647069 -106.814851 38 14724ft 465kts
27-Mar-20 17:20 34.743835 -106.721771 30 13501ft 436kts
27-Mar-20 17:21 34.841899 -106.639069 31 12406ft 420kts
27-Mar-20 17:22 34.936861 -106.559806 25 11511ft 402kts
27-Mar-20 17:23 35.031579 -106.500885 359 11292ft 362kts
27-Mar-20 17:24 35.087459 -106.572249 266 9592ft 293kts
27-Mar-20 17:25 35.068085 -106.655745 255 8576ft 240kts
27-Mar-20 17:26 35.042770 -106.729320 225 9031ft 241kts
27-Mar-20 17:27 34.986439 -106.707690 113 9086ft 269kts
27-Mar-20 17:28 34.967003 -106.624277 108 8500ft 232kts
27-Mar-20 17:29 34.951975 -106.553242 97 7566ft 207kts
27-Mar-20 17:30 34.982615 -106.508431 357 6936ft 170kts
27-Mar-20 17:31 35.024815 -106.521277 312 6285ft 148kts
27-Mar-20 17:32 35.043496 -106.564172 276 5545ft 133kts
27-Mar-20 17:33 35.044160 -106.593674 268 5341ft 40kts
27-Mar-20 17:34 35.045737 -106.601137 271 5332ft 18kts
27-Mar-20 17:35 35.045756 -106.609758 270 5326ft 22kts
27-Mar-20 17:36 35.046858 -106.615435 273 5326ft 7kts
27-Mar-20 17:37 35.046860 -106.615485 271 5325ft 0kts
27-Mar-20 17:38 35.046860 -106.615485 271 5325ft 0kts
27-Mar-20 17:39 35.046860 -106.615485 271 5325ft 0kts

Navigation Log

Ident Type
Flight plan parsing failed, navigation log unavailable